createdAt,value
2022-08-02T00:00:37.502Z,19.25
2022-08-02T00:03:04.255Z,19.22
2022-08-02T00:05:30.879Z,19.19
2022-08-02T00:07:57.559Z,19.16
2022-08-02T00:10:24.235Z,19.08
2022-08-02T00:12:53.258Z,19.03
2022-08-02T00:15:20.008Z,18.93
2022-08-02T00:17:47.345Z,18.87
2022-08-02T00:20:18.312Z,18.94
2022-08-02T00:22:44.943Z,18.83
2022-08-02T00:25:16.233Z,18.68
2022-08-02T00:27:43.130Z,18.65
2022-08-02T00:30:10.294Z,18.63
2022-08-02T00:32:37.038Z,18.61
2022-08-02T00:35:03.989Z,18.61
2022-08-02T00:37:30.612Z,18.68
2022-08-02T00:39:57.481Z,18.71
2022-08-02T00:42:24.185Z,18.68
2022-08-02T00:44:52.100Z,18.61
2022-08-02T00:47:19.821Z,18.64
2022-08-02T00:49:48.440Z,18.72
2022-08-02T00:52:15.180Z,18.74
2022-08-02T00:54:42.100Z,18.73
2022-08-02T00:57:08.887Z,18.78
2022-08-02T00:59:35.550Z,18.74
2022-08-02T01:02:02.264Z,18.68
2022-08-02T01:04:31.197Z,18.64
2022-08-02T01:10:45.875Z,18.45
2022-08-02T01:13:12.399Z,18.49
2022-08-02T01:15:50.455Z,18.56
2022-08-02T01:18:31.224Z,18.54
2022-08-02T01:21:09.076Z,18.45
2022-08-02T01:24:03.079Z,18.44
2022-08-02T01:26:53.331Z,18.45
2022-08-02T01:29:26.743Z,18.41
2022-08-02T01:31:59.697Z,18.36
2022-08-02T01:34:29.773Z,18.25
2022-08-02T01:37:11.111Z,18.25
2022-08-02T01:39:39.379Z,18.24
2022-08-02T01:42:06.706Z,18.11
2022-08-02T01:44:37.385Z,18.14
2022-08-02T01:47:09.440Z,18.16
2022-08-02T01:49:39.837Z,18.24
2022-08-02T01:52:23.123Z,18.17
2022-08-02T01:55:01.731Z,18.20
2022-08-02T01:57:33.448Z,18.19
2022-08-02T02:00:08.584Z,18.13
2022-08-02T02:02:38.443Z,18.12
2022-08-02T02:05:06.428Z,18.05
2022-08-02T02:07:36.346Z,18.01
2022-08-02T02:10:04.769Z,18.03
2022-08-02T02:12:34.876Z,18.01
2022-08-02T02:15:04.638Z,17.87
2022-08-02T02:17:52.639Z,17.87
2022-08-02T02:20:20.195Z,17.93
2022-08-02T02:22:49.772Z,17.85
2022-08-02T02:25:19.085Z,17.83
2022-08-02T02:28:00.739Z,17.75
2022-08-02T02:30:29.310Z,17.75
2022-08-02T02:32:59.968Z,17.75
2022-08-02T02:35:36.906Z,17.73
2022-08-02T02:38:05.682Z,17.65
2022-08-02T02:40:33.618Z,17.67
2022-08-02T02:43:01.774Z,17.72
2022-08-02T02:45:31.910Z,17.77
2022-08-02T02:48:02.112Z,17.77
2022-08-02T02:50:28.939Z,17.78
2022-08-02T02:52:56.823Z,17.71
2022-08-02T02:55:25.499Z,17.71
2022-08-02T02:57:55.036Z,17.76
2022-08-02T03:00:42.785Z,17.79
2022-08-02T03:03:09.687Z,17.76
2022-08-02T03:05:36.590Z,17.71
2022-08-02T03:08:03.457Z,17.69
2022-08-02T03:10:30.306Z,17.69
2022-08-02T03:12:58.611Z,17.68
2022-08-02T03:15:27.889Z,17.63
2022-08-02T03:17:54.954Z,17.60
2022-08-02T03:20:24.081Z,17.59
2022-08-02T03:22:51.002Z,17.62
2022-08-02T03:25:18.230Z,17.57
2022-08-02T03:27:45.266Z,17.45
2022-08-02T03:30:13.340Z,17.39
2022-08-02T03:32:41.955Z,17.26
2022-08-02T03:35:12.673Z,17.28
2022-08-02T03:37:40.534Z,17.30
2022-08-02T03:40:10.958Z,17.29
2022-08-02T03:42:40.086Z,17.22
2022-08-02T03:45:09.295Z,17.23
2022-08-02T03:47:39.425Z,17.23
2022-08-02T03:50:08.502Z,17.15
2022-08-02T03:52:38.831Z,17.17
2022-08-02T03:55:05.693Z,17.14
2022-08-02T03:57:32.570Z,17.08
2022-08-02T03:59:59.145Z,16.96
2022-08-02T04:02:25.779Z,16.91
2022-08-02T04:04:53.890Z,16.96
2022-08-02T04:08:36.353Z,17.02
2022-08-02T04:10:10.813Z,17.07
2022-08-02T04:12:39.758Z,17.06
2022-08-02T04:15:07.838Z,17.07
2022-08-02T04:17:40.663Z,17.06
2022-08-02T04:20:14.012Z,17.12
2022-08-02T04:22:47.778Z,17.20
2022-08-02T04:25:17.339Z,17.29
2022-08-02T04:27:50.510Z,17.28
2022-08-02T04:30:19.003Z,17.34
2022-08-02T04:32:46.092Z,17.33
2022-08-02T04:35:21.004Z,17.37
2022-08-02T04:38:08.668Z,17.40
2022-08-02T04:40:35.428Z,17.40
2022-08-02T04:43:02.001Z,17.33
2022-08-02T04:45:30.661Z,17.40
2022-08-02T04:48:05.931Z,17.56
2022-08-02T04:50:33.507Z,17.66
2022-08-02T04:53:00.102Z,17.77
2022-08-02T04:55:28.987Z,17.81
2022-08-02T04:57:57.389Z,17.85
2022-08-02T05:03:10.951Z,17.97
2022-08-02T05:05:38.287Z,18.10
2022-08-02T05:08:05.375Z,18.12
2022-08-02T05:10:31.912Z,18.22
2022-08-02T05:12:58.342Z,18.32
2022-08-02T05:15:24.910Z,18.36
2022-08-02T05:17:54.076Z,18.45
2022-08-02T05:20:20.673Z,18.57
2022-08-02T05:22:47.558Z,18.57
2022-08-02T05:25:14.676Z,18.68
2022-08-02T05:27:41.411Z,18.68
2022-08-02T05:30:08.667Z,18.82
2022-08-02T05:32:35.923Z,18.95
2022-08-02T05:35:03.270Z,18.97
2022-08-02T05:37:32.315Z,18.78
2022-08-02T05:40:00.811Z,18.92
2022-08-02T05:42:31.047Z,18.84
2022-08-02T05:44:57.544Z,18.79
2022-08-02T05:47:24.259Z,18.94
2022-08-02T05:49:50.895Z,18.91
2022-08-02T05:52:19.127Z,19.00
2022-08-02T05:55:07.467Z,19.08
2022-08-02T05:58:01.102Z,19.15
2022-08-02T06:00:31.528Z,19.17
2022-08-02T06:03:09.197Z,19.21
2022-08-02T06:05:41.374Z,19.18
2022-08-02T06:08:10.256Z,19.20
2022-08-02T06:10:38.638Z,19.26
2022-08-02T06:13:14.368Z,19.27
2022-08-02T06:15:52.530Z,19.33
2022-08-02T06:18:28.069Z,19.38
2022-08-02T06:20:58.666Z,19.37
2022-08-02T06:23:30.420Z,19.44
2022-08-02T06:25:58.513Z,19.60
2022-08-02T06:28:26.619Z,19.68
2022-08-02T06:30:54.476Z,19.69
2022-08-02T06:33:22.253Z,19.68
2022-08-02T06:36:04.783Z,19.77
2022-08-02T06:38:41.464Z,19.95
2022-08-02T06:41:14.659Z,20.04
2022-08-02T06:43:53.497Z,20.21
2022-08-02T06:47:10.097Z,20.36
2022-08-02T06:49:07.401Z,20.52
2022-08-02T06:51:34.285Z,20.83
2022-08-02T06:54:00.945Z,21.15
2022-08-02T06:56:27.493Z,21.48
2022-08-02T06:58:53.953Z,21.66
2022-08-02T07:01:20.691Z,21.81
2022-08-02T07:03:47.369Z,21.87
2022-08-02T07:06:14.069Z,21.84
2022-08-02T07:08:40.739Z,21.69
2022-08-02T07:11:09.114Z,21.53
2022-08-02T07:13:39.655Z,21.37
2022-08-02T07:16:07.493Z,21.22
2022-08-02T07:18:34.581Z,21.16
2022-08-02T07:21:01.068Z,21.25
2022-08-02T07:23:27.605Z,21.22
2022-08-02T07:26:02.340Z,21.34
2022-08-02T07:28:33.819Z,21.44
2022-08-02T07:31:00.360Z,21.70
2022-08-02T07:33:37.740Z,21.86
2022-08-02T07:36:06.117Z,21.97
2022-08-02T07:38:35.441Z,22.14
2022-08-02T07:41:04.316Z,22.43
2022-08-02T07:43:31.434Z,22.52
2022-08-02T07:46:00.769Z,22.76
2022-08-02T07:48:27.707Z,23.08
2022-08-02T07:50:54.373Z,23.67
2022-08-02T07:53:50.291Z,23.90
2022-08-02T07:56:09.870Z,24.21
2022-08-02T07:58:36.338Z,24.51
2022-08-02T08:01:02.901Z,24.53
2022-08-02T08:03:29.545Z,23.88
2022-08-02T08:05:56.138Z,24.20
2022-08-02T08:08:22.618Z,24.38
2022-08-02T08:10:49.263Z,24.50
2022-08-02T08:13:16.311Z,24.62
2022-08-02T08:15:51.799Z,24.79
2022-08-02T08:18:19.919Z,24.56
2022-08-02T08:20:47.443Z,24.80
2022-08-02T08:23:13.948Z,24.96
2022-08-02T08:25:42.121Z,24.99
2022-08-02T08:28:08.747Z,24.98
2022-08-02T08:30:35.325Z,24.95
2022-08-02T08:33:02.150Z,24.86
2022-08-02T08:35:28.897Z,24.70
2022-08-02T08:37:55.430Z,24.52
2022-08-02T08:40:22.154Z,24.49
2022-08-02T08:42:51.030Z,24.73
2022-08-02T08:45:18.198Z,25.04
2022-08-02T08:47:51.624Z,25.31
2022-08-02T08:50:25.159Z,25.71
2022-08-02T08:53:01.685Z,25.98
2022-08-02T08:55:29.839Z,26.37
2022-08-02T08:57:59.455Z,26.55
2022-08-02T09:00:27.480Z,26.75
2022-08-02T09:02:54.331Z,27.01
2022-08-02T09:05:20.871Z,27.21
2022-08-02T09:07:49.176Z,27.35
2022-08-02T09:10:38.922Z,27.39
2022-08-02T09:13:37.651Z,27.32
2022-08-02T09:16:11.717Z,27.54
2022-08-02T09:18:43.719Z,27.74
2022-08-02T09:21:10.520Z,27.91
2022-08-02T09:23:42.609Z,27.83
2022-08-02T09:26:17.466Z,28.04
2022-08-02T09:28:49.615Z,28.16
2022-08-02T09:31:18.462Z,28.41
2022-08-02T09:33:50.966Z,28.64
2022-08-02T09:36:22.519Z,28.79
2022-08-02T09:38:57.343Z,28.82
2022-08-02T09:41:27.148Z,28.89
2022-08-02T09:44:04.482Z,29.07
2022-08-02T09:46:38.535Z,29.26
2022-08-02T09:49:09.588Z,29.47
2022-08-02T09:51:49.240Z,29.62
2022-08-02T09:54:19.992Z,29.76
2022-08-02T09:56:52.462Z,29.94
2022-08-02T09:59:21.470Z,29.88
2022-08-02T10:01:51.235Z,29.82
2022-08-02T10:04:52.530Z,29.69
2022-08-02T10:07:21.629Z,30.09
2022-08-02T10:09:49.400Z,30.37
2022-08-02T10:12:16.105Z,30.17
2022-08-02T10:14:43.945Z,30.40
2022-08-02T10:17:10.884Z,30.46
2022-08-02T10:20:02.036Z,30.54
2022-08-02T10:22:25.225Z,30.73
2022-08-02T10:24:52.488Z,30.50
2022-08-02T10:27:20.991Z,30.45
2022-08-02T10:29:54.195Z,30.27
2022-08-02T10:32:28.552Z,30.06
2022-08-02T10:35:18.917Z,30.27
2022-08-02T10:37:54.182Z,30.29
2022-08-02T10:40:24.104Z,30.52
2022-08-02T10:43:01.288Z,30.44
2022-08-02T10:45:28.443Z,30.65
2022-08-02T10:48:00.555Z,30.77
2022-08-02T10:50:46.672Z,30.61
2022-08-02T10:53:23.894Z,30.60
2022-08-02T10:55:50.803Z,30.86
2022-08-02T10:58:26.256Z,30.85
2022-08-02T11:00:57.500Z,30.87
2022-08-02T11:03:39.496Z,30.89
2022-08-02T11:06:25.098Z,30.86
2022-08-02T11:09:33.418Z,30.82
2022-08-02T11:12:15.113Z,31.14
2022-08-02T11:14:44.174Z,30.93
2022-08-02T11:17:17.541Z,31.18
2022-08-02T11:20:12.286Z,31.40
2022-08-02T11:22:40.074Z,31.67
2022-08-02T11:25:24.038Z,31.48
2022-08-02T11:27:51.337Z,31.49
2022-08-02T11:30:18.031Z,31.52
2022-08-02T11:32:44.644Z,31.44
2022-08-02T11:35:11.307Z,31.39
2022-08-02T11:37:43.212Z,31.51
2022-08-02T11:40:19.660Z,31.52
2022-08-02T11:42:50.591Z,31.55
2022-08-02T11:45:21.027Z,31.37
2022-08-02T11:47:50.813Z,31.80
2022-08-02T11:50:18.136Z,31.87
2022-08-02T11:52:44.754Z,31.98
2022-08-02T11:55:12.023Z,32.09
2022-08-02T11:58:03.116Z,32.03
2022-08-02T12:00:30.345Z,32.33
2022-08-02T12:03:07.168Z,32.76
2022-08-02T12:06:05.209Z,32.78
2022-08-02T12:08:25.299Z,32.71
2022-08-02T12:10:52.580Z,32.57
2022-08-02T12:13:19.042Z,32.70
2022-08-02T12:15:47.102Z,32.39
2022-08-02T12:18:37.615Z,32.41
2022-08-02T12:21:20.338Z,32.59
2022-08-02T12:23:59.571Z,32.05
2022-08-02T12:26:27.541Z,32.01
2022-08-02T12:28:58.604Z,32.52
2022-08-02T12:31:56.475Z,32.59
2022-08-02T12:34:31.981Z,32.49
2022-08-02T12:37:07.101Z,32.68
2022-08-02T12:39:43.210Z,32.73
2022-08-02T12:42:12.189Z,32.86
2022-08-02T12:44:55.299Z,32.80
2022-08-02T12:47:22.074Z,33.02
2022-08-02T12:50:14.942Z,32.99
2022-08-02T12:52:41.563Z,33.31
2022-08-02T12:55:16.607Z,33.45
2022-08-02T12:57:54.994Z,33.50
2022-08-02T13:00:58.665Z,33.72
2022-08-02T13:04:07.954Z,33.54
2022-08-02T13:06:40.880Z,32.57
2022-08-02T13:08:59.567Z,32.82
2022-08-02T13:11:27.161Z,33.19
2022-08-02T13:13:53.997Z,32.97
2022-08-02T13:16:31.247Z,32.94
2022-08-02T13:18:58.354Z,32.82
2022-08-02T13:21:41.354Z,32.85
2022-08-02T13:24:32.890Z,32.93
2022-08-02T13:27:05.182Z,33.30
2022-08-02T13:29:38.416Z,33.33
2022-08-02T13:32:05.749Z,33.28
2022-08-02T13:34:32.453Z,32.81
2022-08-02T13:36:59.108Z,32.89
2022-08-02T13:39:25.614Z,33.10
2022-08-02T13:41:55.081Z,33.27
2022-08-02T13:44:21.821Z,33.27
2022-08-02T13:46:48.404Z,33.40
2022-08-02T13:49:19.795Z,33.40
2022-08-02T13:51:47.577Z,33.28
2022-08-02T13:54:17.459Z,33.29
2022-08-02T13:56:44.574Z,33.30
2022-08-02T13:59:54.924Z,33.37
2022-08-02T14:01:59.152Z,32.79
2022-08-02T14:04:26.569Z,32.66
2022-08-02T14:06:53.955Z,32.50
2022-08-02T14:09:20.820Z,32.58
2022-08-02T14:11:47.734Z,32.28
2022-08-02T14:14:16.927Z,32.20
2022-08-02T14:16:47.076Z,32.18
2022-08-02T14:19:16.039Z,32.47
2022-08-02T14:21:46.632Z,32.69
2022-08-02T14:24:17.958Z,32.79
2022-08-02T14:26:45.848Z,32.79
2022-08-02T14:29:12.905Z,33.03
2022-08-02T14:31:43.950Z,33.05
2022-08-02T14:34:12.039Z,32.81
2022-08-02T14:36:39.066Z,32.63
2022-08-02T14:39:05.770Z,32.56
2022-08-02T14:41:33.897Z,32.71
2022-08-02T14:44:20.287Z,32.79
2022-08-02T14:46:46.848Z,33.04
2022-08-02T14:49:14.382Z,33.32
2022-08-02T14:51:51.615Z,33.40
2022-08-02T14:54:18.372Z,33.57
2022-08-02T14:56:48.250Z,33.50
2022-08-02T14:59:15.445Z,33.54
2022-08-02T15:01:44.379Z,33.45
2022-08-02T15:04:10.975Z,33.12
2022-08-02T15:06:37.456Z,33.54
2022-08-02T15:09:04.013Z,33.79
2022-08-02T15:11:30.734Z,33.79
2022-08-02T15:14:15.195Z,33.89
2022-08-02T15:16:55.518Z,33.95
2022-08-02T15:19:23.315Z,33.98
2022-08-02T15:21:54.778Z,34.50
2022-08-02T15:24:23.568Z,35.83
2022-08-02T15:26:50.769Z,37.05
2022-08-02T15:29:18.181Z,38.10
2022-08-02T15:31:47.286Z,39.01
2022-08-02T15:34:14.200Z,39.60
2022-08-02T15:36:45.259Z,40.31
2022-08-02T15:39:12.415Z,40.99
2022-08-02T15:41:39.055Z,41.70
2022-08-02T15:44:08.528Z,42.35
2022-08-02T15:46:36.028Z,42.11
2022-08-02T15:49:02.641Z,42.23
2022-08-02T15:51:31.980Z,43.68
2022-08-02T15:53:58.523Z,43.57
2022-08-02T15:56:25.226Z,43.28
2022-08-02T15:58:58.696Z,43.06
2022-08-02T16:01:25.926Z,41.15
2022-08-02T16:04:06.372Z,39.57
2022-08-02T16:06:33.216Z,39.91
2022-08-02T16:08:59.658Z,39.65
2022-08-02T16:11:26.199Z,40.73
2022-08-02T16:13:55.550Z,41.75
2022-08-02T16:16:27.376Z,41.14
2022-08-02T16:18:54.891Z,42.00
2022-08-02T16:21:23.461Z,44.10
2022-08-02T16:24:01.232Z,43.05
2022-08-02T16:26:30.478Z,44.94
2022-08-02T16:28:57.277Z,45.13
2022-08-02T16:31:24.074Z,45.41
2022-08-02T16:33:50.669Z,43.37
2022-08-02T16:36:24.526Z,40.56
2022-08-02T16:38:54.077Z,38.67
2022-08-02T16:41:21.221Z,37.97
2022-08-02T16:43:47.778Z,36.88
2022-08-02T16:46:14.463Z,35.61
2022-08-02T16:48:41.497Z,34.68
2022-08-02T16:51:18.495Z,33.90
2022-08-02T16:53:59.737Z,33.38
2022-08-02T16:56:28.536Z,32.98
2022-08-02T16:58:55.383Z,32.99
2022-08-02T17:01:28.067Z,32.85
2022-08-02T17:04:16.471Z,32.67
2022-08-02T17:06:47.973Z,32.34
2022-08-02T17:10:01.880Z,31.79
2022-08-02T17:12:06.453Z,31.64
2022-08-02T17:14:42.018Z,31.45
2022-08-02T17:17:22.558Z,31.27
2022-08-02T17:20:00.878Z,30.90
2022-08-02T17:22:27.373Z,30.92
2022-08-02T17:24:53.868Z,30.99
2022-08-02T17:27:20.454Z,30.92
2022-08-02T17:29:46.950Z,30.73
2022-08-02T17:32:15.264Z,30.59
2022-08-02T17:34:49.081Z,30.46
2022-08-02T17:37:23.403Z,30.34
2022-08-02T17:39:51.647Z,30.28
2022-08-02T17:42:19.640Z,30.20
2022-08-02T17:44:49.186Z,30.18
2022-08-02T17:47:33.467Z,30.15
2022-08-02T17:50:09.655Z,30.08
2022-08-02T17:52:50.105Z,30.00
2022-08-02T17:55:19.726Z,29.90
2022-08-02T17:57:58.206Z,29.86
2022-08-02T18:00:33.854Z,29.79
2022-08-02T18:03:02.033Z,29.70
2022-08-02T18:05:39.385Z,29.55
2022-08-02T18:08:08.895Z,29.56
2022-08-02T18:10:35.545Z,29.51
2022-08-02T18:13:03.610Z,29.46
2022-08-02T18:15:32.606Z,29.40
2022-08-02T18:17:59.681Z,29.31
2022-08-02T18:20:26.197Z,29.25
2022-08-02T18:22:58.433Z,29.17
2022-08-02T18:25:36.571Z,29.08
2022-08-02T18:28:10.496Z,28.97
2022-08-02T18:30:37.053Z,28.87
2022-08-02T18:33:59.675Z,28.75
2022-08-02T18:35:52.886Z,28.60
2022-08-02T18:38:21.914Z,28.51
2022-08-02T18:40:50.784Z,28.43
2022-08-02T18:43:17.911Z,28.35
2022-08-02T18:46:05.645Z,28.29
2022-08-02T18:48:33.744Z,28.22
2022-08-02T18:51:00.245Z,28.08
2022-08-02T18:53:39.216Z,27.99
2022-08-02T18:56:19.857Z,27.88
2022-08-02T18:58:54.674Z,27.88
2022-08-02T19:01:32.398Z,27.82
2022-08-02T19:04:08.712Z,27.76
2022-08-02T19:06:35.516Z,27.63
2022-08-02T19:09:12.802Z,27.51
2022-08-02T19:11:40.783Z,27.33
2022-08-02T19:14:07.860Z,27.22
2022-08-02T19:16:37.511Z,27.11
2022-08-02T19:19:07.313Z,27.07
2022-08-02T19:22:18.528Z,26.98
2022-08-02T19:24:20.679Z,26.91
2022-08-02T19:26:51.893Z,26.87
2022-08-02T19:29:25.141Z,26.84
2022-08-02T19:32:41.472Z,26.77
2022-08-02T19:34:53.744Z,26.64
2022-08-02T19:37:20.665Z,26.53
2022-08-02T19:39:47.716Z,26.46
2022-08-02T19:42:14.816Z,26.40
2022-08-02T19:44:44.985Z,26.40
2022-08-02T19:47:12.569Z,26.38
2022-08-02T19:49:49.016Z,26.32
2022-08-02T19:52:21.621Z,26.24
2022-08-02T19:54:55.562Z,26.15
2022-08-02T19:57:38.126Z,26.10
2022-08-02T20:00:11.240Z,25.99
2022-08-02T20:02:38.309Z,25.95
2022-08-02T20:05:16.026Z,25.86
2022-08-02T20:07:54.581Z,25.73
2022-08-02T20:10:24.966Z,25.58
2022-08-02T20:12:53.506Z,25.52
2022-08-02T20:15:20.750Z,25.46
2022-08-02T20:17:49.159Z,25.41
2022-08-02T20:20:16.845Z,25.29
2022-08-02T20:23:33.566Z,25.21
2022-08-02T20:25:50.891Z,25.13
2022-08-02T20:28:22.115Z,25.11
2022-08-02T20:30:49.408Z,24.95
2022-08-02T20:36:02.929Z,24.78
2022-08-02T20:38:29.942Z,24.71
2022-08-02T20:40:57.794Z,24.71
2022-08-02T20:43:31.070Z,24.65
2022-08-02T20:45:58.559Z,24.54
2022-08-02T20:48:29.938Z,24.46
2022-08-02T20:50:56.885Z,24.48
2022-08-02T20:53:25.997Z,24.43
2022-08-02T20:55:56.559Z,24.37
2022-08-02T20:58:26.999Z,24.37
2022-08-02T21:00:58.552Z,24.29
2022-08-02T21:03:25.602Z,24.19
2022-08-02T21:06:08.020Z,24.09
2022-08-02T21:08:34.597Z,23.99
2022-08-02T21:11:09.078Z,23.95
2022-08-02T21:16:25.639Z,23.69
2022-08-02T21:18:55.830Z,23.64
2022-08-02T21:21:26.762Z,23.52
2022-08-02T21:23:54.661Z,23.46
2022-08-02T21:26:28.279Z,23.42
2022-08-02T21:28:56.876Z,23.44
2022-08-02T21:31:24.475Z,23.38
2022-08-02T21:33:59.346Z,23.30
2022-08-02T21:36:33.109Z,23.22
2022-08-02T21:39:05.793Z,23.15
2022-08-02T21:41:39.099Z,23.09
2022-08-02T21:44:12.618Z,23.07
2022-08-02T21:46:39.145Z,22.97
2022-08-02T21:49:05.812Z,22.95
2022-08-02T21:51:34.210Z,22.91
2022-08-02T21:54:17.752Z,22.83
2022-08-02T21:56:46.029Z,22.73
2022-08-02T21:59:15.700Z,22.61
2022-08-02T22:01:52.539Z,22.59
2022-08-02T22:04:20.298Z,22.55
2022-08-02T22:06:49.077Z,22.50
2022-08-02T22:09:17.429Z,22.44
2022-08-02T22:11:44.539Z,22.42
2022-08-02T22:14:12.824Z,22.42
2022-08-02T22:16:39.407Z,22.35
2022-08-02T22:19:06.691Z,22.32
2022-08-02T22:21:46.598Z,22.27
2022-08-02T22:24:30.098Z,22.23
2022-08-02T22:26:57.879Z,22.20
2022-08-02T22:29:24.481Z,22.08
2022-08-02T22:31:52.109Z,21.99
2022-08-02T22:34:37.081Z,21.87
2022-08-02T22:40:05.973Z,21.84
2022-08-02T22:42:35.469Z,21.88
2022-08-02T22:45:08.432Z,21.81
2022-08-02T22:47:38.938Z,21.78
2022-08-02T22:50:17.594Z,21.67
2022-08-02T22:52:46.850Z,21.67
2022-08-02T22:55:17.483Z,21.52
2022-08-02T22:57:56.382Z,21.48
2022-08-02T22:58:55.696Z,24.91
2022-08-02T22:59:11.780Z,23.79
2022-08-02T23:00:31.748Z,21.38
2022-08-02T23:02:58.358Z,21.31
2022-08-02T23:05:25.197Z,21.23
2022-08-02T23:07:52.182Z,21.21
2022-08-02T23:10:21.355Z,21.21
2022-08-02T23:12:47.833Z,21.20
2022-08-02T23:15:14.289Z,21.20
2022-08-02T23:17:59.293Z,21.17
2022-08-02T23:20:25.795Z,21.14
2022-08-02T23:22:52.721Z,21.12
2022-08-02T23:25:22.413Z,21.05
2022-08-02T23:27:50.887Z,21.00
2022-08-02T23:30:18.433Z,20.95
2022-08-02T23:32:44.890Z,20.92
2022-08-02T23:35:17.242Z,20.87
2022-08-02T23:37:58.971Z,20.80
2022-08-02T23:40:39.135Z,20.72
2022-08-02T23:43:13.338Z,20.65
2022-08-02T23:45:41.374Z,20.51
2022-08-02T23:48:07.825Z,20.50
2022-08-02T23:50:34.260Z,20.51
2022-08-02T23:53:00.684Z,20.50
2022-08-02T23:55:27.135Z,20.46
2022-08-02T23:57:53.734Z,20.38
